sensor_id;sensor_type;location;lat;lon;timestamp;temperature;humidity
62904;DHT22;49000;50.698;13.322;2023-04-03T00:01:01;1.20;99.90
62904;DHT22;49000;50.698;13.322;2023-04-03T00:03:27;1.70;99.90
62904;DHT22;49000;50.698;13.322;2023-04-03T00:05:53;1.10;99.90
62904;DHT22;49000;50.698;13.322;2023-04-03T00:08:19;1.30;99.90
62904;DHT22;49000;50.698;13.322;2023-04-03T00:10:45;1.60;99.90
62904;DHT22;49000;50.698;13.322;2023-04-03T00:13:11;1.70;99.90
62904;DHT22;49000;50.698;13.322;2023-04-03T00:15:37;1.80;99.90
62904;DHT22;49000;50.698;13.322;2023-04-03T00:18:03;1.70;99.90
62904;DHT22;49000;50.698;13.322;2023-04-03T00:20:29;1.60;99.90
62904;DHT22;49000;50.698;13.322;2023-04-03T00:22:55;1.70;99.90
62904;DHT22;49000;50.698;13.322;2023-04-03T00:25:21;1.70;99.90
62904;DHT22;49000;50.698;13.322;2023-04-03T00:27:46;1.60;99.90
62904;DHT22;49000;50.698;13.322;2023-04-03T00:30:15;1.40;99.90
62904;DHT22;49000;50.698;13.322;2023-04-03T00:32:40;1.30;99.90
62904;DHT22;49000;50.698;13.322;2023-04-03T00:35:07;0.80;99.90
62904;DHT22;49000;50.698;13.322;2023-04-03T00:37:32;1.10;99.90
62904;DHT22;49000;50.698;13.322;2023-04-03T00:39:58;1.50;99.90
62904;DHT22;49000;50.698;13.322;2023-04-03T00:42:24;1.30;99.90
62904;DHT22;49000;50.698;13.322;2023-04-03T00:47:21;1.20;99.90
62904;DHT22;49000;50.698;13.322;2023-04-03T00:49:48;1.40;99.90
62904;DHT22;49000;50.698;13.322;2023-04-03T00:52:17;1.00;99.90
62904;DHT22;49000;50.698;13.322;2023-04-03T00:54:44;1.20;99.90
62904;DHT22;49000;50.698;13.322;2023-04-03T00:57:11;1.00;99.90
62904;DHT22;49000;50.698;13.322;2023-04-03T00:59:42;1.10;99.90
62904;DHT22;49000;50.698;13.322;2023-04-03T01:02:09;1.30;99.90
62904;DHT22;49000;50.698;13.322;2023-04-03T01:04:38;1.10;99.90
62904;DHT22;49000;50.698;13.322;2023-04-03T01:07:08;1.20;99.90
62904;DHT22;49000;50.698;13.322;2023-04-03T01:09:35;0.80;99.90
62904;DHT22;49000;50.698;13.322;2023-04-03T01:14:41;1.00;99.90
62904;DHT22;49000;50.698;13.322;2023-04-03T01:17:45;0.50;99.90
62904;DHT22;49000;50.698;13.322;2023-04-03T01:25:51;1.20;99.90
62904;DHT22;49000;50.698;13.322;2023-04-03T01:28:24;1.00;99.90
62904;DHT22;49000;50.698;13.322;2023-04-03T01:33:35;0.80;99.90
62904;DHT22;49000;50.698;13.322;2023-04-03T01:36:00;1.00;99.90
62904;DHT22;49000;50.698;13.322;2023-04-03T01:38:26;0.90;99.90
62904;DHT22;49000;50.698;13.322;2023-04-03T01:40:52;0.80;99.90
62904;DHT22;49000;50.698;13.322;2023-04-03T01:43:17;0.80;99.90
62904;DHT22;49000;50.698;13.322;2023-04-03T01:45:43;0.70;99.90
62904;DHT22;49000;50.698;13.322;2023-04-03T01:48:09;0.50;99.90
62904;DHT22;49000;50.698;13.322;2023-04-03T01:50:34;0.60;99.90
62904;DHT22;49000;50.698;13.322;2023-04-03T01:53:00;0.60;99.90
62904;DHT22;49000;50.698;13.322;2023-04-03T01:55:25;0.20;99.90
62904;DHT22;49000;50.698;13.322;2023-04-03T01:57:51;0.60;99.90
62904;DHT22;49000;50.698;13.322;2023-04-03T02:00:17;0.20;99.90
62904;DHT22;49000;50.698;13.322;2023-04-03T02:02:42;0.50;99.90
62904;DHT22;49000;50.698;13.322;2023-04-03T02:05:08;0.10;99.90
62904;DHT22;49000;50.698;13.322;2023-04-03T02:07:33;0.50;99.90
62904;DHT22;49000;50.698;13.322;2023-04-03T02:09:59;0.40;99.90
62904;DHT22;49000;50.698;13.322;2023-04-03T02:12:24;0.20;99.90
62904;DHT22;49000;50.698;13.322;2023-04-03T02:14:50;0.10;99.90
62904;DHT22;49000;50.698;13.322;2023-04-03T02:17:15;0.30;99.90
62904;DHT22;49000;50.698;13.322;2023-04-03T02:19:41;0.70;99.90
62904;DHT22;49000;50.698;13.322;2023-04-03T02:22:06;0.50;99.90
62904;DHT22;49000;50.698;13.322;2023-04-03T02:24:32;0.00;99.90
62904;DHT22;49000;50.698;13.322;2023-04-03T02:26:58;0.40;99.90
62904;DHT22;49000;50.698;13.322;2023-04-03T02:29:23;0.60;99.90
62904;DHT22;49000;50.698;13.322;2023-04-03T02:31:50;0.40;99.90
62904;DHT22;49000;50.698;13.322;2023-04-03T02:34:16;0.50;99.90
62904;DHT22;49000;50.698;13.322;2023-04-03T02:36:41;0.20;99.90
62904;DHT22;49000;50.698;13.322;2023-04-03T02:39:07;-0.20;99.90
62904;DHT22;49000;50.698;13.322;2023-04-03T02:41:33;0.30;99.90
62904;DHT22;49000;50.698;13.322;2023-04-03T02:44:02;-0.20;99.90
62904;DHT22;49000;50.698;13.322;2023-04-03T02:46:27;0.20;99.90
62904;DHT22;49000;50.698;13.322;2023-04-03T02:48:53;-0.20;99.90
62904;DHT22;49000;50.698;13.322;2023-04-03T02:51:18;0.20;99.90
62904;DHT22;49000;50.698;13.322;2023-04-03T02:53:44;0.10;99.90
62904;DHT22;49000;50.698;13.322;2023-04-03T02:56:09;-0.20;99.90
62904;DHT22;49000;50.698;13.322;2023-04-03T02:58:35;-0.20;99.90
62904;DHT22;49000;50.698;13.322;2023-04-03T03:01:01;0.00;99.90
62904;DHT22;49000;50.698;13.322;2023-04-03T03:03:26;0.00;99.90
62904;DHT22;49000;50.698;13.322;2023-04-03T03:06:07;0.10;99.90
62904;DHT22;49000;50.698;13.322;2023-04-03T03:08:33;-0.20;99.90
62904;DHT22;49000;50.698;13.322;2023-04-03T03:10:59;-0.80;99.90
62904;DHT22;49000;50.698;13.322;2023-04-03T03:13:25;-0.40;99.90
62904;DHT22;49000;50.698;13.322;2023-04-03T03:15:51;-0.30;99.90
62904;DHT22;49000;50.698;13.322;2023-04-03T03:18:17;-0.50;99.90
62904;DHT22;49000;50.698;13.322;2023-04-03T03:20:42;-1.00;99.90
62904;DHT22;49000;50.698;13.322;2023-04-03T03:23:08;-0.50;99.90
62904;DHT22;49000;50.698;13.322;2023-04-03T03:25:38;-0.50;99.90
62904;DHT22;49000;50.698;13.322;2023-04-03T03:28:03;-0.50;99.90
62904;DHT22;49000;50.698;13.322;2023-04-03T03:30:29;-0.80;99.90
62904;DHT22;49000;50.698;13.322;2023-04-03T03:32:54;-0.70;99.90
62904;DHT22;49000;50.698;13.322;2023-04-03T03:35:20;-0.70;99.90
62904;DHT22;49000;50.698;13.322;2023-04-03T03:37:45;-0.60;99.90
62904;DHT22;49000;50.698;13.322;2023-04-03T03:40:11;-0.80;99.90
62904;DHT22;49000;50.698;13.322;2023-04-03T03:42:38;-0.80;99.90
62904;DHT22;49000;50.698;13.322;2023-04-03T03:45:04;-1.20;99.90
62904;DHT22;49000;50.698;13.322;2023-04-03T03:47:29;-1.00;99.90
62904;DHT22;49000;50.698;13.322;2023-04-03T03:49:55;-0.90;99.90
62904;DHT22;49000;50.698;13.322;2023-04-03T03:52:20;-0.80;99.90
62904;DHT22;49000;50.698;13.322;2023-04-03T03:54:46;-0.70;99.90
62904;DHT22;49000;50.698;13.322;2023-04-03T03:57:11;-1.40;99.90
62904;DHT22;49000;50.698;13.322;2023-04-03T03:59:37;-1.10;99.90
62904;DHT22;49000;50.698;13.322;2023-04-03T04:02:03;-1.00;99.90
62904;DHT22;49000;50.698;13.322;2023-04-03T04:04:28;-0.90;99.90
62904;DHT22;49000;50.698;13.322;2023-04-03T04:06:54;-1.00;99.90
62904;DHT22;49000;50.698;13.322;2023-04-03T04:09:19;-0.90;99.90
62904;DHT22;49000;50.698;13.322;2023-04-03T04:11:45;-1.20;99.90
62904;DHT22;49000;50.698;13.322;2023-04-03T04:14:10;-1.00;99.90
62904;DHT22;49000;50.698;13.322;2023-04-03T04:16:37;-1.10;99.90
62904;DHT22;49000;50.698;13.322;2023-04-03T04:19:03;-1.40;99.90
62904;DHT22;49000;50.698;13.322;2023-04-03T04:21:28;-1.50;99.90
62904;DHT22;49000;50.698;13.322;2023-04-03T04:23:54;-1.50;99.90
62904;DHT22;49000;50.698;13.322;2023-04-03T04:26:20;-1.30;99.90
62904;DHT22;49000;50.698;13.322;2023-04-03T04:28:46;-1.90;99.90
62904;DHT22;49000;50.698;13.322;2023-04-03T04:31:11;-1.50;99.90
62904;DHT22;49000;50.698;13.322;2023-04-03T04:33:37;-1.50;99.90
62904;DHT22;49000;50.698;13.322;2023-04-03T04:36:02;-1.70;99.90
62904;DHT22;49000;50.698;13.322;2023-04-03T04:38:28;-1.60;99.90
62904;DHT22;49000;50.698;13.322;2023-04-03T04:40:53;-1.70;99.90
62904;DHT22;49000;50.698;13.322;2023-04-03T04:43:19;-1.70;99.90
62904;DHT22;49000;50.698;13.322;2023-04-03T04:45:45;-1.70;99.90
62904;DHT22;49000;50.698;13.322;2023-04-03T04:48:10;-1.60;99.90
62904;DHT22;49000;50.698;13.322;2023-04-03T04:50:35;-2.20;99.90
62904;DHT22;49000;50.698;13.322;2023-04-03T04:53:01;-1.80;99.90
62904;DHT22;49000;50.698;13.322;2023-04-03T04:55:26;-1.70;99.90
62904;DHT22;49000;50.698;13.322;2023-04-03T04:57:52;-2.20;99.90
62904;DHT22;49000;50.698;13.322;2023-04-03T05:00:18;-1.70;99.90
62904;DHT22;49000;50.698;13.322;2023-04-03T05:02:43;-1.80;99.90
62904;DHT22;49000;50.698;13.322;2023-04-03T05:05:09;-2.20;99.90
62904;DHT22;49000;50.698;13.322;2023-04-03T05:07:34;-1.60;99.90
62904;DHT22;49000;50.698;13.322;2023-04-03T05:10:01;-2.10;99.90
62904;DHT22;49000;50.698;13.322;2023-04-03T05:12:28;-2.00;99.90
62904;DHT22;49000;50.698;13.322;2023-04-03T05:14:53;-2.20;99.90
62904;DHT22;49000;50.698;13.322;2023-04-03T05:17:19;-1.60;99.90
62904;DHT22;49000;50.698;13.322;2023-04-03T05:19:44;-1.50;99.90
62904;DHT22;49000;50.698;13.322;2023-04-03T05:22:10;-2.00;99.90
62904;DHT22;49000;50.698;13.322;2023-04-03T05:24:35;-2.00;99.90
62904;DHT22;49000;50.698;13.322;2023-04-03T05:27:01;-1.50;99.90
62904;DHT22;49000;50.698;13.322;2023-04-03T05:29:26;-1.40;99.90
62904;DHT22;49000;50.698;13.322;2023-04-03T05:31:52;-1.70;99.90
62904;DHT22;49000;50.698;13.322;2023-04-03T05:34:17;-1.40;99.90
62904;DHT22;49000;50.698;13.322;2023-04-03T05:36:43;-1.60;99.90
62904;DHT22;49000;50.698;13.322;2023-04-03T05:39:09;-1.50;99.90
62904;DHT22;49000;50.698;13.322;2023-04-03T05:41:34;-1.40;99.90
62904;DHT22;49000;50.698;13.322;2023-04-03T05:44:00;-1.30;99.90
62904;DHT22;49000;50.698;13.322;2023-04-03T05:46:26;-1.30;99.90
62904;DHT22;49000;50.698;13.322;2023-04-03T05:48:51;-1.30;99.90
62904;DHT22;49000;50.698;13.322;2023-04-03T05:51:22;-1.10;99.90
62904;DHT22;49000;50.698;13.322;2023-04-03T05:53:48;-1.40;99.90
62904;DHT22;49000;50.698;13.322;2023-04-03T05:56:15;-1.40;99.90
62904;DHT22;49000;50.698;13.322;2023-04-03T05:58:40;-1.30;99.90
62904;DHT22;49000;50.698;13.322;2023-04-03T06:01:06;-1.20;99.90
62904;DHT22;49000;50.698;13.322;2023-04-03T06:03:31;-1.30;99.90
62904;DHT22;49000;50.698;13.322;2023-04-03T06:05:57;-1.50;99.90
62904;DHT22;49000;50.698;13.322;2023-04-03T06:08:22;-1.20;99.90
62904;DHT22;49000;50.698;13.322;2023-04-03T06:10:49;-1.40;99.90
62904;DHT22;49000;50.698;13.322;2023-04-03T06:13:15;-1.50;99.90
62904;DHT22;49000;50.698;13.322;2023-04-03T06:15:41;-1.00;99.90
62904;DHT22;49000;50.698;13.322;2023-04-03T06:18:07;-1.10;99.90
62904;DHT22;49000;50.698;13.322;2023-04-03T06:20:33;-1.00;99.90
62904;DHT22;49000;50.698;13.322;2023-04-03T06:22:58;-1.00;99.90
62904;DHT22;49000;50.698;13.322;2023-04-03T06:25:24;-1.30;99.90
62904;DHT22;49000;50.698;13.322;2023-04-03T06:27:49;-1.00;99.90
62904;DHT22;49000;50.698;13.322;2023-04-03T06:30:15;-1.00;99.90
62904;DHT22;49000;50.698;13.322;2023-04-03T06:32:41;-0.90;99.90
62904;DHT22;49000;50.698;13.322;2023-04-03T06:35:07;-0.90;99.90
62904;DHT22;49000;50.698;13.322;2023-04-03T06:37:32;-0.90;99.90
62904;DHT22;49000;50.698;13.322;2023-04-03T06:39:58;-1.20;99.90
62904;DHT22;49000;50.698;13.322;2023-04-03T06:42:25;-0.70;99.90
62904;DHT22;49000;50.698;13.322;2023-04-03T06:44:51;-1.00;99.90
62904;DHT22;49000;50.698;13.322;2023-04-03T06:47:16;-0.90;99.90
62904;DHT22;49000;50.698;13.322;2023-04-03T06:49:42;-0.50;99.90
62904;DHT22;49000;50.698;13.322;2023-04-03T06:52:08;-0.60;99.90
62904;DHT22;49000;50.698;13.322;2023-04-03T06:54:34;-0.60;99.90
62904;DHT22;49000;50.698;13.322;2023-04-03T06:57:00;-0.80;99.90
62904;DHT22;49000;50.698;13.322;2023-04-03T06:59:26;-0.90;99.90
62904;DHT22;49000;50.698;13.322;2023-04-03T07:01:52;-0.30;99.90
62904;DHT22;49000;50.698;13.322;2023-04-03T07:04:17;-0.20;99.90
62904;DHT22;49000;50.698;13.322;2023-04-03T07:06:45;-0.30;99.90
62904;DHT22;49000;50.698;13.322;2023-04-03T07:09:13;-0.30;99.90
62904;DHT22;49000;50.698;13.322;2023-04-03T07:11:38;-0.80;99.90
62904;DHT22;49000;50.698;13.322;2023-04-03T07:14:04;0.00;99.90
62904;DHT22;49000;50.698;13.322;2023-04-03T07:16:30;-0.10;99.90
62904;DHT22;49000;50.698;13.322;2023-04-03T07:18:56;0.10;99.90
62904;DHT22;49000;50.698;13.322;2023-04-03T07:21:22;0.30;86.30
62904;DHT22;49000;50.698;13.322;2023-04-03T07:23:48;0.10;92.80
62904;DHT22;49000;50.698;13.322;2023-04-03T07:26:13;0.10;94.80
62904;DHT22;49000;50.698;13.322;2023-04-03T07:28:39;-0.30;85.30
62904;DHT22;49000;50.698;13.322;2023-04-03T07:31:08;0.40;93.40
62904;DHT22;49000;50.698;13.322;2023-04-03T07:33:37;0.50;93.80
62904;DHT22;49000;50.698;13.322;2023-04-03T07:36:03;0.60;90.50
62904;DHT22;49000;50.698;13.322;2023-04-03T07:38:29;0.70;86.60
62904;DHT22;49000;50.698;13.322;2023-04-03T07:40:54;0.70;82.70
62904;DHT22;49000;50.698;13.322;2023-04-03T07:43:21;0.60;84.80
62904;DHT22;49000;50.698;13.322;2023-04-03T07:45:47;1.00;90.10
62904;DHT22;49000;50.698;13.322;2023-04-03T07:48:20;0.60;76.10
62904;DHT22;49000;50.698;13.322;2023-04-03T07:50:45;1.30;74.20
62904;DHT22;49000;50.698;13.322;2023-04-03T07:53:11;1.10;74.90
62904;DHT22;49000;50.698;13.322;2023-04-03T07:55:37;1.20;76.50
62904;DHT22;49000;50.698;13.322;2023-04-03T07:58:09;0.70;78.80
62904;DHT22;49000;50.698;13.322;2023-04-03T08:00:35;1.00;83.10
62904;DHT22;49000;50.698;13.322;2023-04-03T08:03:00;0.80;77.30
62904;DHT22;49000;50.698;13.322;2023-04-03T08:05:26;0.60;71.40
62904;DHT22;49000;50.698;13.322;2023-04-03T08:07:52;1.20;73.10
62904;DHT22;49000;50.698;13.322;2023-04-03T08:10:17;1.90;67.20
62904;DHT22;49000;50.698;13.322;2023-04-03T08:12:47;1.60;64.10
62904;DHT22;49000;50.698;13.322;2023-04-03T08:15:13;1.80;51.70
62904;DHT22;49000;50.698;13.322;2023-04-03T08:17:39;1.90;36.60
62904;DHT22;49000;50.698;13.322;2023-04-03T08:20:05;2.30;39.20
62904;DHT22;49000;50.698;13.322;2023-04-03T08:22:32;1.90;25.00
62904;DHT22;49000;50.698;13.322;2023-04-03T08:24:58;2.20;38.70
62904;DHT22;49000;50.698;13.322;2023-04-03T08:27:23;2.50;38.30
62904;DHT22;49000;50.698;13.322;2023-04-03T08:29:48;2.60;39.20
62904;DHT22;49000;50.698;13.322;2023-04-03T08:32:14;2.80;43.80
62904;DHT22;49000;50.698;13.322;2023-04-03T08:34:40;2.80;31.40
62904;DHT22;49000;50.698;13.322;2023-04-03T08:37:06;2.60;32.70
62904;DHT22;49000;50.698;13.322;2023-04-03T08:39:31;2.90;33.90
62904;DHT22;49000;50.698;13.322;2023-04-03T08:41:59;2.90;32.20
62904;DHT22;49000;50.698;13.322;2023-04-03T08:44:44;3.00;32.00
62904;DHT22;49000;50.698;13.322;2023-04-03T08:47:24;3.00;27.00
62904;DHT22;49000;50.698;13.322;2023-04-03T08:50:00;3.30;29.50
62904;DHT22;49000;50.698;13.322;2023-04-03T08:52:42;3.40;25.70
62904;DHT22;49000;50.698;13.322;2023-04-03T08:55:25;3.60;35.20
62904;DHT22;49000;50.698;13.322;2023-04-03T08:58:16;4.10;31.00
62904;DHT22;49000;50.698;13.322;2023-04-03T09:00:50;4.60;13.80
62904;DHT22;49000;50.698;13.322;2023-04-03T09:03:18;4.70;21.70
62904;DHT22;49000;50.698;13.322;2023-04-03T09:06:06;4.50;22.60
62904;DHT22;49000;50.698;13.322;2023-04-03T09:09:04;4.90;29.10
62904;DHT22;49000;50.698;13.322;2023-04-03T09:14:38;5.40;20.70
62904;DHT22;49000;50.698;13.322;2023-04-03T09:17:35;5.20;19.30
62904;DHT22;49000;50.698;13.322;2023-04-03T09:22:44;4.90;26.40
62904;DHT22;49000;50.698;13.322;2023-04-03T09:25:19;5.40;18.90
62904;DHT22;49000;50.698;13.322;2023-04-03T09:27:46;4.60;17.90
62904;DHT22;49000;50.698;13.322;2023-04-03T09:30:22;4.80;23.30
62904;DHT22;49000;50.698;13.322;2023-04-03T09:32:51;4.60;16.20
62904;DHT22;49000;50.698;13.322;2023-04-03T09:35:30;4.40;11.00
62904;DHT22;49000;50.698;13.322;2023-04-03T09:38:13;4.40;9.90
62904;DHT22;49000;50.698;13.322;2023-04-03T09:40:41;4.80;18.40
62904;DHT22;49000;50.698;13.322;2023-04-03T09:43:29;4.90;14.50
62904;DHT22;49000;50.698;13.322;2023-04-03T09:46:15;5.60;15.80
62904;DHT22;49000;50.698;13.322;2023-04-03T09:48:57;4.80;9.50
62904;DHT22;49000;50.698;13.322;2023-04-03T09:51:27;5.10;9.80
62904;DHT22;49000;50.698;13.322;2023-04-03T09:53:54;4.90;15.00
62904;DHT22;49000;50.698;13.322;2023-04-03T09:56:24;5.20;17.10
62904;DHT22;49000;50.698;13.322;2023-04-03T10:01:31;5.80;8.40
62904;DHT22;49000;50.698;13.322;2023-04-03T10:04:11;6.20;10.00
62904;DHT22;49000;50.698;13.322;2023-04-03T10:06:43;5.80;1.40
62904;DHT22;49000;50.698;13.322;2023-04-03T10:09:18;6.00;16.90
62904;DHT22;49000;50.698;13.322;2023-04-03T10:14:30;6.80;8.10
62904;DHT22;49000;50.698;13.322;2023-04-03T10:17:09;5.20;3.90
62904;DHT22;49000;50.698;13.322;2023-04-03T10:22:50;5.60;12.90
62904;DHT22;49000;50.698;13.322;2023-04-03T10:25:59;6.00;15.50
62904;DHT22;49000;50.698;13.322;2023-04-03T10:36:56;6.80;5.50
62904;DHT22;49000;50.698;13.322;2023-04-03T10:42:18;5.80;6.40
62904;DHT22;49000;50.698;13.322;2023-04-03T10:45:14;5.00;8.00
62904;DHT22;49000;50.698;13.322;2023-04-03T10:50:44;4.80;12.10
62904;DHT22;49000;50.698;13.322;2023-04-03T10:53:39;5.40;15.50
62904;DHT22;49000;50.698;13.322;2023-04-03T10:56:22;5.70;13.30
62904;DHT22;49000;50.698;13.322;2023-04-03T10:58:57;5.70;10.90
62904;DHT22;49000;50.698;13.322;2023-04-03T11:01:33;6.00;6.20
62904;DHT22;49000;50.698;13.322;2023-04-03T11:04:00;5.80;6.30
62904;DHT22;49000;50.698;13.322;2023-04-03T11:07:17;6.30;6.70
62904;DHT22;49000;50.698;13.322;2023-04-03T11:12:08;7.50;3.40
62904;DHT22;49000;50.698;13.322;2023-04-03T11:14:36;7.40;1.00
62904;DHT22;49000;50.698;13.322;2023-04-03T11:19:52;7.20;5.00
62904;DHT22;49000;50.698;13.322;2023-04-03T11:22:39;7.10;2.40
62904;DHT22;49000;50.698;13.322;2023-04-03T11:27:48;7.00;1.00
62904;DHT22;49000;50.698;13.322;2023-04-03T11:30:20;6.60;1.00
62904;DHT22;49000;50.698;13.322;2023-04-03T11:33:04;6.40;2.00
62904;DHT22;49000;50.698;13.322;2023-04-03T11:35:32;6.70;1.00
62904;DHT22;49000;50.698;13.322;2023-04-03T11:38:00;5.60;1.00
62904;DHT22;49000;50.698;13.322;2023-04-03T11:40:36;6.00;4.00
62904;DHT22;49000;50.698;13.322;2023-04-03T11:43:07;5.70;1.00
62904;DHT22;49000;50.698;13.322;2023-04-03T11:50:44;5.50;2.30
62904;DHT22;49000;50.698;13.322;2023-04-03T11:58:16;7.60;7.40
62904;DHT22;49000;50.698;13.322;2023-04-03T12:00:52;7.90;1.00
62904;DHT22;49000;50.698;13.322;2023-04-03T12:05:56;6.80;1.70
62904;DHT22;49000;50.698;13.322;2023-04-03T12:08:38;5.30;1.00
62904;DHT22;49000;50.698;13.322;2023-04-03T12:14:16;5.70;3.60
62904;DHT22;49000;50.698;13.322;2023-04-03T12:16:28;6.00;2.50
62904;DHT22;49000;50.698;13.322;2023-04-03T12:26:46;6.00;3.20
62904;DHT22;49000;50.698;13.322;2023-04-03T12:34:50;6.70;1.00
62904;DHT22;49000;50.698;13.322;2023-04-03T12:43:28;5.30;1.00
62904;DHT22;49000;50.698;13.322;2023-04-03T12:46:09;5.90;4.20
62904;DHT22;49000;50.698;13.322;2023-04-03T12:48:57;6.00;2.10
62904;DHT22;49000;50.698;13.322;2023-04-03T12:51:39;6.00;1.60
62904;DHT22;49000;50.698;13.322;2023-04-03T12:54:37;5.60;1.00
62904;DHT22;49000;50.698;13.322;2023-04-03T12:57:12;5.80;1.00
62904;DHT22;49000;50.698;13.322;2023-04-03T12:59:38;5.50;1.00
62904;DHT22;49000;50.698;13.322;2023-04-03T13:04:46;5.80;1.00
62904;DHT22;49000;50.698;13.322;2023-04-03T13:07:28;5.90;1.00
62904;DHT22;49000;50.698;13.322;2023-04-03T13:09:58;7.00;1.00
62904;DHT22;49000;50.698;13.322;2023-04-03T13:12:25;7.60;1.00
62904;DHT22;49000;50.698;13.322;2023-04-03T13:14:57;7.80;1.00
62904;DHT22;49000;50.698;13.322;2023-04-03T13:17:24;7.80;1.00
62904;DHT22;49000;50.698;13.322;2023-04-03T13:19:50;7.00;1.00
62904;DHT22;49000;50.698;13.322;2023-04-03T13:22:25;6.50;1.00
62904;DHT22;49000;50.698;13.322;2023-04-03T13:24:53;6.50;1.00
62904;DHT22;49000;50.698;13.322;2023-04-03T13:27:19;6.50;1.00
62904;DHT22;49000;50.698;13.322;2023-04-03T13:29:50;6.80;1.00
62904;DHT22;49000;50.698;13.322;2023-04-03T13:32:20;7.00;1.00
62904;DHT22;49000;50.698;13.322;2023-04-03T13:34:46;6.80;1.00
62904;DHT22;49000;50.698;13.322;2023-04-03T13:37:28;6.90;1.00
62904;DHT22;49000;50.698;13.322;2023-04-03T13:42:35;5.60;1.00
62904;DHT22;49000;50.698;13.322;2023-04-03T13:45:23;5.80;1.00
62904;DHT22;49000;50.698;13.322;2023-04-03T13:47:53;6.10;1.00
62904;DHT22;49000;50.698;13.322;2023-04-03T13:50:22;6.10;1.00
62904;DHT22;49000;50.698;13.322;2023-04-03T13:53:13;5.90;1.00
62904;DHT22;49000;50.698;13.322;2023-04-03T13:58:30;6.70;1.00
62904;DHT22;49000;50.698;13.322;2023-04-03T14:01:14;5.80;1.00
62904;DHT22;49000;50.698;13.322;2023-04-03T14:03:51;5.60;1.00
62904;DHT22;49000;50.698;13.322;2023-04-03T14:06:17;5.80;1.00
62904;DHT22;49000;50.698;13.322;2023-04-03T14:08:44;5.20;1.00
62904;DHT22;49000;50.698;13.322;2023-04-03T14:11:14;5.60;1.00
62904;DHT22;49000;50.698;13.322;2023-04-03T14:13:39;5.90;1.00
62904;DHT22;49000;50.698;13.322;2023-04-03T14:16:05;5.60;1.00
62904;DHT22;49000;50.698;13.322;2023-04-03T14:18:31;5.90;1.00
62904;DHT22;49000;50.698;13.322;2023-04-03T14:20:57;5.60;1.00
62904;DHT22;49000;50.698;13.322;2023-04-03T14:23:23;5.90;1.00
62904;DHT22;49000;50.698;13.322;2023-04-03T14:25:48;5.80;1.00
62904;DHT22;49000;50.698;13.322;2023-04-03T14:28:21;6.00;1.00
62904;DHT22;49000;50.698;13.322;2023-04-03T14:30:48;5.70;1.00
62904;DHT22;49000;50.698;13.322;2023-04-03T14:33:18;5.20;1.00
62904;DHT22;49000;50.698;13.322;2023-04-03T14:35:44;5.40;1.00
62904;DHT22;49000;50.698;13.322;2023-04-03T14:38:21;5.70;1.00
62904;DHT22;49000;50.698;13.322;2023-04-03T14:40:47;5.40;1.00
62904;DHT22;49000;50.698;13.322;2023-04-03T14:43:13;6.10;1.00
62904;DHT22;49000;50.698;13.322;2023-04-03T14:45:38;6.50;1.00
62904;DHT22;49000;50.698;13.322;2023-04-03T14:48:04;6.60;1.00
62904;DHT22;49000;50.698;13.322;2023-04-03T14:50:31;6.50;1.00
62904;DHT22;49000;50.698;13.322;2023-04-03T14:52:58;5.80;1.00
62904;DHT22;49000;50.698;13.322;2023-04-03T14:55:25;5.80;1.00
62904;DHT22;49000;50.698;13.322;2023-04-03T14:57:52;5.80;1.00
62904;DHT22;49000;50.698;13.322;2023-04-03T15:00:20;5.60;1.00
62904;DHT22;49000;50.698;13.322;2023-04-03T15:02:46;5.90;1.00
62904;DHT22;49000;50.698;13.322;2023-04-03T15:05:13;5.60;1.00
62904;DHT22;49000;50.698;13.322;2023-04-03T15:07:52;5.80;1.00
62904;DHT22;49000;50.698;13.322;2023-04-03T15:10:22;5.60;1.00
62904;DHT22;49000;50.698;13.322;2023-04-03T15:12:49;4.80;1.00
62904;DHT22;49000;50.698;13.322;2023-04-03T15:15:16;5.00;1.00
62904;DHT22;49000;50.698;13.322;2023-04-03T15:17:42;4.80;1.00
62904;DHT22;49000;50.698;13.322;2023-04-03T15:20:23;4.70;1.00
62904;DHT22;49000;50.698;13.322;2023-04-03T15:22:49;4.50;1.00
62904;DHT22;49000;50.698;13.322;2023-04-03T15:25:15;4.40;1.00
62904;DHT22;49000;50.698;13.322;2023-04-03T15:27:41;4.30;1.00
62904;DHT22;49000;50.698;13.322;2023-04-03T15:30:11;4.00;1.00
62904;DHT22;49000;50.698;13.322;2023-04-03T15:32:38;4.00;1.00
62904;DHT22;49000;50.698;13.322;2023-04-03T15:35:04;4.20;1.00
62904;DHT22;49000;50.698;13.322;2023-04-03T15:37:29;4.40;3.50
62904;DHT22;49000;50.698;13.322;2023-04-03T15:39:55;4.60;1.00
62904;DHT22;49000;50.698;13.322;2023-04-03T15:42:20;4.50;1.00
62904;DHT22;49000;50.698;13.322;2023-04-03T15:44:46;4.70;1.00
62904;DHT22;49000;50.698;13.322;2023-04-03T15:47:12;4.30;1.00
62904;DHT22;49000;50.698;13.322;2023-04-03T15:49:37;5.20;1.00
62904;DHT22;49000;50.698;13.322;2023-04-03T15:52:03;5.00;1.00
62904;DHT22;49000;50.698;13.322;2023-04-03T15:54:29;5.10;1.00
62904;DHT22;49000;50.698;13.322;2023-04-03T15:56:55;4.70;1.00
62904;DHT22;49000;50.698;13.322;2023-04-03T15:59:21;4.70;1.00
62904;DHT22;49000;50.698;13.322;2023-04-03T16:01:47;4.50;1.00
62904;DHT22;49000;50.698;13.322;2023-04-03T16:04:13;4.50;1.00
62904;DHT22;49000;50.698;13.322;2023-04-03T16:06:39;4.30;1.00
62904;DHT22;49000;50.698;13.322;2023-04-03T16:09:04;4.30;1.00
62904;DHT22;49000;50.698;13.322;2023-04-03T16:11:30;4.20;1.00
62904;DHT22;49000;50.698;13.322;2023-04-03T16:13:56;4.20;1.00
62904;DHT22;49000;50.698;13.322;2023-04-03T16:16:22;4.20;1.00
62904;DHT22;49000;50.698;13.322;2023-04-03T16:18:48;4.30;3.00
62904;DHT22;49000;50.698;13.322;2023-04-03T16:21:15;4.90;1.00
62904;DHT22;49000;50.698;13.322;2023-04-03T16:23:41;4.60;1.00
62904;DHT22;49000;50.698;13.322;2023-04-03T16:26:08;4.10;1.00
62904;DHT22;49000;50.698;13.322;2023-04-03T16:28:34;3.80;1.00
62904;DHT22;49000;50.698;13.322;2023-04-03T16:31:01;3.80;1.00
62904;DHT22;49000;50.698;13.322;2023-04-03T16:33:27;3.80;1.00
62904;DHT22;49000;50.698;13.322;2023-04-03T16:35:52;3.70;1.00
62904;DHT22;49000;50.698;13.322;2023-04-03T16:38:19;3.90;1.00
62904;DHT22;49000;50.698;13.322;2023-04-03T16:40:45;3.50;1.00
62904;DHT22;49000;50.698;13.322;2023-04-03T16:43:10;3.60;1.00
62904;DHT22;49000;50.698;13.322;2023-04-03T16:45:36;3.20;1.00
62904;DHT22;49000;50.698;13.322;2023-04-03T16:48:02;3.10;1.10
62904;DHT22;49000;50.698;13.322;2023-04-03T16:50:28;3.30;1.00
62904;DHT22;49000;50.698;13.322;2023-04-03T16:52:53;2.70;1.80
62904;DHT22;49000;50.698;13.322;2023-04-03T16:55:19;2.90;1.00
62904;DHT22;49000;50.698;13.322;2023-04-03T16:57:46;2.80;1.00
62904;DHT22;49000;50.698;13.322;2023-04-03T17:00:11;2.80;1.20
62904;DHT22;49000;50.698;13.322;2023-04-03T17:02:37;3.10;2.60
62904;DHT22;49000;50.698;13.322;2023-04-03T17:05:03;2.40;1.00
62904;DHT22;49000;50.698;13.322;2023-04-03T17:07:28;2.80;1.00
62904;DHT22;49000;50.698;13.322;2023-04-03T17:09:54;2.80;1.00
62904;DHT22;49000;50.698;13.322;2023-04-03T17:12:21;2.70;1.00
62904;DHT22;49000;50.698;13.322;2023-04-03T17:14:47;2.20;1.00